KCMR Airport (H A Clark Memorial Field) Information

FAA: CMR - ICAO: KCMR

KCMR Airport Location

State Arizona
County Coconino
City Williams
KCMR Airport is 3 miles north of Williams, AZ.
Latitude 35-18-19.8000N
Longitude 112-11-39.7000W
Elevation 6,690ft

KCMR Airport METARs

METAR KCMR 060615Z AUTO 00000KT 10SM CLR 17/02 A3025 RMK AO2
Altimeter 30.25"
Temperature 17.0°C (62.6°F)
Wind 0° at 0KT
Clouds Skies are clear.
Visibility 10.0mi
Time observed: 2022-07-06T06:15:00Z

KCMR Airport Details

Status Operational
Activation November 1942
Ownership Public
Usage Public
Chart PHOENIX
ATC on-site No
Beacon schedule sunset-sunrise
Beacon color clear green

KCMR Airport Contacts

Owner CITY OF WILLIAMS
Owner address 113 S FIRST ST, WILLIAMS, AZ 86046
Owner phone 928-635-4451
Manager PHIL LEROY
Manager address PO BOX 1078, WILLCOX, AZ 85644
Manager phone 520-253-0757

KCMR Airport (H A Clark Memorial Field) Radio Frequencies

KCMR (Airport) Radio Frequencies

UNICOM 122.8
Common traffic advisory frequency (CTAF) 122.8